sensor_id;sensor_type;location;lat;lon;timestamp;noise_LAeq;noise_LA_min;noise_LA_max;noise_LA01;noise_LA95
69620;Laerm;57654;51.434;5.984;2022-07-06T00:00:04;32.72;30.88;34.65;;
69620;Laerm;57654;51.434;5.984;2022-07-06T00:00:15;32.65;30.68;35.20;;
69620;Laerm;57654;51.434;5.984;2022-07-06T00:00:25;32.86;30.99;36.52;;
69620;Laerm;57654;51.434;5.984;2022-07-06T00:00:35;33.03;31.09;37.09;;
69620;Laerm;57654;51.434;5.984;2022-07-06T00:00:46;32.95;30.74;35.36;;
69620;Laerm;57654;51.434;5.984;2022-07-06T00:00:56;33.25;30.94;36.86;;
69620;Laerm;57654;51.434;5.984;2022-07-06T00:01:06;32.87;30.91;35.96;;
69620;Laerm;57654;51.434;5.984;2022-07-06T00:01:16;32.84;30.96;34.96;;
69620;Laerm;57654;51.434;5.984;2022-07-06T00:01:26;32.82;30.78;36.14;;
69620;Laerm;57654;51.434;5.984;2022-07-06T00:01:37;32.78;30.48;36.00;;
69620;Laerm;57654;51.434;5.984;2022-07-06T00:01:47;32.76;30.72;36.36;;
69620;Laerm;57654;51.434;5.984;2022-07-06T00:01:58;32.73;30.80;36.97;;
69620;Laerm;57654;51.434;5.984;2022-07-06T00:02:08;32.79;30.47;36.30;;
69620;Laerm;57654;51.434;5.984;2022-07-06T00:02:18;32.76;30.68;35.35;;
69620;Laerm;57654;51.434;5.984;2022-07-06T00:02:29;32.64;30.80;35.95;;
69620;Laerm;57654;51.434;5.984;2022-07-06T00:02:39;32.75;30.36;35.00;;
69620;Laerm;57654;51.434;5.984;2022-07-06T00:02:49;32.96;30.98;35.54;;
69620;Laerm;57654;51.434;5.984;2022-07-06T00:02:59;32.91;30.95;36.30;;
69620;Laerm;57654;51.434;5.984;2022-07-06T00:03:10;33.02;30.70;36.36;;
69620;Laerm;57654;51.434;5.984;2022-07-06T00:03:20;33.00;30.98;37.13;;
69620;Laerm;57654;51.434;5.984;2022-07-06T00:03:30;33.34;30.99;37.37;;
69620;Laerm;57654;51.434;5.984;2022-07-06T00:03:40;33.23;30.66;36.08;;
69620;Laerm;57654;51.434;5.984;2022-07-06T00:03:51;33.35;31.52;36.20;;
69620;Laerm;57654;51.434;5.984;2022-07-06T00:04:01;33.55;31.34;37.44;;
69620;Laerm;57654;51.434;5.984;2022-07-06T00:04:12;33.32;31.14;36.51;;
69620;Laerm;57654;51.434;5.984;2022-07-06T00:04:22;33.18;31.31;35.74;;
69620;Laerm;57654;51.434;5.984;2022-07-06T00:04:32;33.09;30.93;35.37;;
69620;Laerm;57654;51.434;5.984;2022-07-06T00:04:42;33.12;30.52;37.21;;
69620;Laerm;57654;51.434;5.984;2022-07-06T00:04:53;33.08;30.94;36.51;;
69620;Laerm;57654;51.434;5.984;2022-07-06T00:05:03;33.00;30.77;36.12;;
69620;Laerm;57654;51.434;5.984;2022-07-06T00:05:13;33.11;30.33;35.97;;
69620;Laerm;57654;51.434;5.984;2022-07-06T00:05:24;33.02;30.90;37.08;;
69620;Laerm;57654;51.434;5.984;2022-07-06T00:05:34;33.16;31.16;36.60;;
69620;Laerm;57654;51.434;5.984;2022-07-06T00:05:44;32.96;30.90;35.93;;
69620;Laerm;57654;51.434;5.984;2022-07-06T00:05:55;32.97;30.80;36.04;;
69620;Laerm;57654;51.434;5.984;2022-07-06T00:06:06;32.77;30.74;37.70;;
69620;Laerm;57654;51.434;5.984;2022-07-06T00:06:16;32.96;30.61;36.65;;
69620;Laerm;57654;51.434;5.984;2022-07-06T00:06:27;32.73;30.77;35.47;;
69620;Laerm;57654;51.434;5.984;2022-07-06T00:06:37;33.02;30.91;36.46;;
69620;Laerm;57654;51.434;5.984;2022-07-06T00:06:48;32.74;30.99;36.55;;
69620;Laerm;57654;51.434;5.984;2022-07-06T00:06:58;32.79;30.86;36.25;;
69620;Laerm;57654;51.434;5.984;2022-07-06T00:07:08;32.91;30.36;36.07;;
69620;Laerm;57654;51.434;5.984;2022-07-06T00:07:19;33.10;31.05;37.16;;
69620;Laerm;57654;51.434;5.984;2022-07-06T00:07:30;32.80;30.66;35.78;;
69620;Laerm;57654;51.434;5.984;2022-07-06T00:07:40;33.02;30.92;36.90;;
69620;Laerm;57654;51.434;5.984;2022-07-06T00:07:50;32.68;30.44;35.17;;
69620;Laerm;57654;51.434;5.984;2022-07-06T00:08:00;32.97;30.96;35.84;;
69620;Laerm;57654;51.434;5.984;2022-07-06T00:08:11;32.91;30.80;35.33;;
69620;Laerm;57654;51.434;5.984;2022-07-06T00:08:21;33.13;30.88;36.07;;
69620;Laerm;57654;51.434;5.984;2022-07-06T00:08:31;32.85;30.87;35.86;;
69620;Laerm;57654;51.434;5.984;2022-07-06T00:08:41;32.78;30.75;35.31;;
69620;Laerm;57654;51.434;5.984;2022-07-06T00:08:52;32.74;30.67;35.01;;
69620;Laerm;57654;51.434;5.984;2022-07-06T00:09:03;32.75;30.88;35.62;;
69620;Laerm;57654;51.434;5.984;2022-07-06T00:09:13;32.84;30.83;36.00;;
69620;Laerm;57654;51.434;5.984;2022-07-06T00:09:24;32.84;30.62;35.70;;
69620;Laerm;57654;51.434;5.984;2022-07-06T00:09:34;33.08;30.69;37.09;;
69620;Laerm;57654;51.434;5.984;2022-07-06T00:09:44;33.03;31.13;37.03;;
69620;Laerm;57654;51.434;5.984;2022-07-06T00:09:54;33.31;30.84;36.47;;
69620;Laerm;57654;51.434;5.984;2022-07-06T00:10:05;33.37;31.02;36.49;;
69620;Laerm;57654;51.434;5.984;2022-07-06T00:10:15;33.31;30.34;36.81;;
69620;Laerm;57654;51.434;5.984;2022-07-06T00:10:25;32.92;30.91;36.89;;
69620;Laerm;57654;51.434;5.984;2022-07-06T00:10:36;32.71;30.67;35.26;;
69620;Laerm;57654;51.434;5.984;2022-07-06T00:10:46;32.76;30.73;35.06;;
69620;Laerm;57654;51.434;5.984;2022-07-06T00:10:56;32.82;30.57;35.45;;
69620;Laerm;57654;51.434;5.984;2022-07-06T00:11:06;32.95;30.89;36.05;;
69620;Laerm;57654;51.434;5.984;2022-07-06T00:11:17;32.66;30.80;34.66;;
69620;Laerm;57654;51.434;5.984;2022-07-06T00:11:27;33.01;30.98;36.54;;
69620;Laerm;57654;51.434;5.984;2022-07-06T00:11:37;33.00;31.05;35.97;;
69620;Laerm;57654;51.434;5.984;2022-07-06T00:11:47;33.05;30.60;35.14;;
69620;Laerm;57654;51.434;5.984;2022-07-06T00:11:58;33.39;31.23;35.57;;
69620;Laerm;57654;51.434;5.984;2022-07-06T00:12:08;33.36;31.17;36.23;;
69620;Laerm;57654;51.434;5.984;2022-07-06T00:12:18;33.17;30.70;37.03;;
69620;Laerm;57654;51.434;5.984;2022-07-06T00:12:29;32.89;30.94;35.26;;
69620;Laerm;57654;51.434;5.984;2022-07-06T00:12:39;33.01;30.47;37.96;;
69620;Laerm;57654;51.434;5.984;2022-07-06T00:12:49;32.90;30.96;38.28;;
69620;Laerm;57654;51.434;5.984;2022-07-06T00:12:59;33.04;30.74;37.15;;
69620;Laerm;57654;51.434;5.984;2022-07-06T00:13:09;32.85;30.56;35.59;;
69620;Laerm;57654;51.434;5.984;2022-07-06T00:13:20;32.68;30.83;36.94;;
69620;Laerm;57654;51.434;5.984;2022-07-06T00:13:30;32.98;30.74;37.27;;
69620;Laerm;57654;51.434;5.984;2022-07-06T00:13:40;32.82;31.19;35.23;;
69620;Laerm;57654;51.434;5.984;2022-07-06T00:13:51;32.92;30.64;37.34;;
69620;Laerm;57654;51.434;5.984;2022-07-06T00:14:01;32.78;30.50;35.50;;
69620;Laerm;57654;51.434;5.984;2022-07-06T00:14:11;32.71;30.70;35.52;;
69620;Laerm;57654;51.434;5.984;2022-07-06T00:14:22;33.06;30.62;37.29;;
69620;Laerm;57654;51.434;5.984;2022-07-06T00:14:32;32.64;30.82;36.21;;
69620;Laerm;57654;51.434;5.984;2022-07-06T00:14:43;32.80;30.56;35.32;;
69620;Laerm;57654;51.434;5.984;2022-07-06T00:14:53;32.85;30.78;35.79;;
69620;Laerm;57654;51.434;5.984;2022-07-06T00:15:03;33.16;30.92;36.77;;
69620;Laerm;57654;51.434;5.984;2022-07-06T00:15:13;32.86;30.62;35.80;;
69620;Laerm;57654;51.434;5.984;2022-07-06T00:15:24;32.88;30.80;36.43;;
69620;Laerm;57654;51.434;5.984;2022-07-06T00:15:34;33.07;31.01;36.37;;
69620;Laerm;57654;51.434;5.984;2022-07-06T00:15:44;32.93;30.93;35.83;;
69620;Laerm;57654;51.434;5.984;2022-07-06T00:15:55;32.78;31.14;35.90;;
69620;Laerm;57654;51.434;5.984;2022-07-06T00:16:05;32.90;30.36;36.90;;
69620;Laerm;57654;51.434;5.984;2022-07-06T00:16:16;33.00;30.99;37.62;;
69620;Laerm;57654;51.434;5.984;2022-07-06T00:16:26;33.37;30.83;36.64;;
69620;Laerm;57654;51.434;5.984;2022-07-06T00:16:36;33.95;31.03;50.22;;
69620;Laerm;57654;51.434;5.984;2022-07-06T00:16:47;33.43;31.12;36.06;;
69620;Laerm;57654;51.434;5.984;2022-07-06T00:16:57;33.32;31.01;41.32;;
69620;Laerm;57654;51.434;5.984;2022-07-06T00:17:07;32.98;30.61;36.31;;
69620;Laerm;57654;51.434;5.984;2022-07-06T00:17:18;33.21;31.10;37.38;;
69620;Laerm;57654;51.434;5.984;2022-07-06T00:17:28;32.77;30.60;35.28;;
69620;Laerm;57654;51.434;5.984;2022-07-06T00:17:38;32.92;30.95;36.32;;
69620;Laerm;57654;51.434;5.984;2022-07-06T00:17:48;32.80;31.05;35.22;;
69620;Laerm;57654;51.434;5.984;2022-07-06T00:17:58;32.82;30.83;35.45;;
69620;Laerm;57654;51.434;5.984;2022-07-06T00:18:09;32.97;30.54;35.55;;
69620;Laerm;57654;51.434;5.984;2022-07-06T00:18:19;32.82;30.70;38.52;;
69620;Laerm;57654;51.434;5.984;2022-07-06T00:18:29;33.01;31.00;36.14;;
69620;Laerm;57654;51.434;5.984;2022-07-06T00:18:40;33.00;30.95;37.02;;
69620;Laerm;57654;51.434;5.984;2022-07-06T00:18:50;32.90;30.74;35.53;;
69620;Laerm;57654;51.434;5.984;2022-07-06T00:19:01;32.84;30.59;36.93;;
69620;Laerm;57654;51.434;5.984;2022-07-06T00:19:11;32.68;30.51;35.32;;
69620;Laerm;57654;51.434;5.984;2022-07-06T00:19:22;32.98;30.96;36.68;;
69620;Laerm;57654;51.434;5.984;2022-07-06T00:19:32;32.91;30.48;37.05;;
69620;Laerm;57654;51.434;5.984;2022-07-06T00:19:42;32.99;30.80;35.93;;
69620;Laerm;57654;51.434;5.984;2022-07-06T00:19:53;33.07;30.75;37.75;;
69620;Laerm;57654;51.434;5.984;2022-07-06T00:20:03;32.99;30.38;36.62;;
69620;Laerm;57654;51.434;5.984;2022-07-06T00:20:13;32.88;31.04;36.33;;
69620;Laerm;57654;51.434;5.984;2022-07-06T00:20:24;32.64;31.07;34.74;;
69620;Laerm;57654;51.434;5.984;2022-07-06T00:20:34;32.77;30.41;37.31;;
69620;Laerm;57654;51.434;5.984;2022-07-06T00:20:44;33.03;30.87;35.96;;
69620;Laerm;57654;51.434;5.984;2022-07-06T00:20:55;33.43;30.76;36.79;;
69620;Laerm;57654;51.434;5.984;2022-07-06T00:21:05;33.42;31.07;37.13;;
69620;Laerm;57654;51.434;5.984;2022-07-06T00:21:16;32.94;30.26;36.61;;
69620;Laerm;57654;51.434;5.984;2022-07-06T00:21:26;32.91;30.87;36.10;;
69620;Laerm;57654;51.434;5.984;2022-07-06T00:21:36;33.10;30.67;36.61;;
69620;Laerm;57654;51.434;5.984;2022-07-06T00:21:46;33.03;30.69;35.61;;
69620;Laerm;57654;51.434;5.984;2022-07-06T00:21:57;32.92;30.84;37.12;;
69620;Laerm;57654;51.434;5.984;2022-07-06T00:22:07;32.92;30.77;35.94;;
69620;Laerm;57654;51.434;5.984;2022-07-06T00:22:17;32.94;30.85;34.97;;
69620;Laerm;57654;51.434;5.984;2022-07-06T00:22:27;32.94;31.16;36.61;;
69620;Laerm;57654;51.434;5.984;2022-07-06T00:22:37;33.07;30.99;36.28;;
69620;Laerm;57654;51.434;5.984;2022-07-06T00:22:48;33.24;30.98;36.60;;
69620;Laerm;57654;51.434;5.984;2022-07-06T00:22:58;33.06;30.68;36.38;;
69620;Laerm;57654;51.434;5.984;2022-07-06T00:23:08;33.26;30.60;36.49;;
69620;Laerm;57654;51.434;5.984;2022-07-06T00:23:18;33.77;31.08;37.81;;
69620;Laerm;57654;51.434;5.984;2022-07-06T00:23:29;33.03;30.95;35.27;;
69620;Laerm;57654;51.434;5.984;2022-07-06T00:23:39;33.02;30.87;36.30;;
69620;Laerm;57654;51.434;5.984;2022-07-06T00:23:49;32.95;30.75;37.12;;
69620;Laerm;57654;51.434;5.984;2022-07-06T00:24:01;32.96;30.68;41.00;;
69620;Laerm;57654;51.434;5.984;2022-07-06T00:24:12;33.02;30.63;36.28;;
69620;Laerm;57654;51.434;5.984;2022-07-06T00:24:22;32.73;30.78;35.12;;
69620;Laerm;57654;51.434;5.984;2022-07-06T00:24:32;33.13;30.94;36.92;;
69620;Laerm;57654;51.434;5.984;2022-07-06T00:24:42;33.16;31.12;35.27;;
69620;Laerm;57654;51.434;5.984;2022-07-06T00:24:53;33.21;31.17;35.98;;
69620;Laerm;57654;51.434;5.984;2022-07-06T00:25:03;33.15;30.88;36.42;;
69620;Laerm;57654;51.434;5.984;2022-07-06T00:25:13;33.10;30.90;37.29;;
69620;Laerm;57654;51.434;5.984;2022-07-06T00:25:23;33.09;30.95;39.04;;
69620;Laerm;57654;51.434;5.984;2022-07-06T00:25:34;33.03;30.90;35.59;;
69620;Laerm;57654;51.434;5.984;2022-07-06T00:25:44;33.14;31.15;36.76;;
69620;Laerm;57654;51.434;5.984;2022-07-06T00:25:55;32.76;30.76;35.38;;
69620;Laerm;57654;51.434;5.984;2022-07-06T00:26:05;33.58;30.89;37.45;;
69620;Laerm;57654;51.434;5.984;2022-07-06T00:26:15;32.94;30.95;35.28;;
69620;Laerm;57654;51.434;5.984;2022-07-06T00:26:26;33.07;30.95;35.36;;
69620;Laerm;57654;51.434;5.984;2022-07-06T00:26:36;33.06;31.03;36.47;;
69620;Laerm;57654;51.434;5.984;2022-07-06T00:26:46;32.97;30.99;35.51;;
69620;Laerm;57654;51.434;5.984;2022-07-06T00:26:56;33.00;30.74;36.24;;
69620;Laerm;57654;51.434;5.984;2022-07-06T00:27:07;33.54;31.42;35.91;;
69620;Laerm;57654;51.434;5.984;2022-07-06T00:27:17;33.02;31.07;35.51;;
69620;Laerm;57654;51.434;5.984;2022-07-06T00:27:27;33.20;31.07;36.79;;
69620;Laerm;57654;51.434;5.984;2022-07-06T00:27:38;33.01;30.94;36.79;;
69620;Laerm;57654;51.434;5.984;2022-07-06T00:27:48;33.41;30.98;40.41;;
69620;Laerm;57654;51.434;5.984;2022-07-06T00:27:58;33.16;30.77;36.47;;
69620;Laerm;57654;51.434;5.984;2022-07-06T00:28:08;33.49;31.60;37.36;;
69620;Laerm;57654;51.434;5.984;2022-07-06T00:28:18;32.97;30.84;35.76;;
69620;Laerm;57654;51.434;5.984;2022-07-06T00:28:29;33.02;30.51;35.53;;
69620;Laerm;57654;51.434;5.984;2022-07-06T00:28:39;32.78;30.68;38.11;;
69620;Laerm;57654;51.434;5.984;2022-07-06T00:28:49;32.76;30.65;36.25;;
69620;Laerm;57654;51.434;5.984;2022-07-06T00:28:59;33.02;30.40;36.93;;
69620;Laerm;57654;51.434;5.984;2022-07-06T00:29:10;33.05;30.78;36.38;;
69620;Laerm;57654;51.434;5.984;2022-07-06T00:29:20;33.14;31.13;35.72;;
69620;Laerm;57654;51.434;5.984;2022-07-06T00:29:30;32.95;30.75;36.16;;
69620;Laerm;57654;51.434;5.984;2022-07-06T00:29:40;32.65;30.70;34.90;;
69620;Laerm;57654;51.434;5.984;2022-07-06T00:29:53;32.88;30.79;35.32;;
69620;Laerm;57654;51.434;5.984;2022-07-06T00:30:04;32.68;30.84;35.23;;
69620;Laerm;57654;51.434;5.984;2022-07-06T00:30:14;32.79;30.55;36.74;;
69620;Laerm;57654;51.434;5.984;2022-07-06T00:30:24;32.79;30.44;35.94;;
69620;Laerm;57654;51.434;5.984;2022-07-06T00:30:35;32.72;30.69;35.78;;
69620;Laerm;57654;51.434;5.984;2022-07-06T00:30:45;32.98;30.76;36.48;;
69620;Laerm;57654;51.434;5.984;2022-07-06T00:30:55;32.68;31.05;35.61;;
69620;Laerm;57654;51.434;5.984;2022-07-06T00:31:06;32.92;30.79;36.25;;
69620;Laerm;57654;51.434;5.984;2022-07-06T00:31:16;32.79;31.07;35.82;;
69620;Laerm;57654;51.434;5.984;2022-07-06T00:31:27;32.66;30.35;36.30;;
69620;Laerm;57654;51.434;5.984;2022-07-06T00:31:37;33.01;30.58;36.07;;
69620;Laerm;57654;51.434;5.984;2022-07-06T00:31:47;32.74;30.31;35.26;;
69620;Laerm;57654;51.434;5.984;2022-07-06T00:31:58;32.90;30.70;37.20;;
69620;Laerm;57654;51.434;5.984;2022-07-06T00:32:08;32.96;30.86;36.30;;
69620;Laerm;57654;51.434;5.984;2022-07-06T00:32:18;32.98;30.63;35.90;;
69620;Laerm;57654;51.434;5.984;2022-07-06T00:32:28;32.86;30.61;37.07;;
69620;Laerm;57654;51.434;5.984;2022-07-06T00:32:39;32.66;30.55;35.16;;
69620;Laerm;57654;51.434;5.984;2022-07-06T00:32:49;32.80;30.85;36.27;;
69620;Laerm;57654;51.434;5.984;2022-07-06T00:32:59;32.80;30.95;35.51;;
69620;Laerm;57654;51.434;5.984;2022-07-06T00:33:10;32.67;30.40;35.31;;
69620;Laerm;57654;51.434;5.984;2022-07-06T00:33:20;33.14;30.82;36.04;;
69620;Laerm;57654;51.434;5.984;2022-07-06T00:33:31;33.17;31.19;36.41;;
69620;Laerm;57654;51.434;5.984;2022-07-06T00:33:41;33.42;30.73;36.75;;
69620;Laerm;57654;51.434;5.984;2022-07-06T00:33:51;33.39;30.71;36.21;;
69620;Laerm;57654;51.434;5.984;2022-07-06T00:34:02;33.09;31.23;36.08;;
69620;Laerm;57654;51.434;5.984;2022-07-06T00:34:12;32.80;30.64;35.91;;
69620;Laerm;57654;51.434;5.984;2022-07-06T00:34:22;32.94;30.76;35.49;;
69620;Laerm;57654;51.434;5.984;2022-07-06T00:34:32;32.68;30.93;36.24;;
69620;Laerm;57654;51.434;5.984;2022-07-06T00:34:42;32.92;30.70;38.79;;
69620;Laerm;57654;51.434;5.984;2022-07-06T00:34:53;32.56;30.71;35.10;;
69620;Laerm;57654;51.434;5.984;2022-07-06T00:35:03;32.63;31.00;34.97;;
69620;Laerm;57654;51.434;5.984;2022-07-06T00:35:14;32.72;30.60;36.47;;
69620;Laerm;57654;51.434;5.984;2022-07-06T00:35:24;32.77;30.95;35.68;;
69620;Laerm;57654;51.434;5.984;2022-07-06T00:35:35;32.68;30.55;34.77;;
69620;Laerm;57654;51.434;5.984;2022-07-06T00:35:45;32.70;30.70;34.73;;
69620;Laerm;57654;51.434;5.984;2022-07-06T00:35:55;32.73;31.18;35.74;;
69620;Laerm;57654;51.434;5.984;2022-07-06T00:36:05;32.70;30.75;35.14;;
69620;Laerm;57654;51.434;5.984;2022-07-06T00:36:16;32.76;30.26;34.92;;
69620;Laerm;57654;51.434;5.984;2022-07-06T00:36:26;32.58;30.78;34.63;;
69620;Laerm;57654;51.434;5.984;2022-07-06T00:36:37;32.61;30.82;35.32;;
69620;Laerm;57654;51.434;5.984;2022-07-06T00:36:47;32.79;30.95;37.10;;
69620;Laerm;57654;51.434;5.984;2022-07-06T00:36:57;32.62;30.88;34.81;;
69620;Laerm;57654;51.434;5.984;2022-07-06T00:37:08;32.77;30.82;35.44;;
69620;Laerm;57654;51.434;5.984;2022-07-06T00:37:18;32.76;30.80;34.78;;
69620;Laerm;57654;51.434;5.984;2022-07-06T00:37:28;32.85;30.75;36.97;;
69620;Laerm;57654;51.434;5.984;2022-07-06T00:37:38;32.75;30.73;34.97;;
69620;Laerm;57654;51.434;5.984;2022-07-06T00:37:49;32.89;31.05;35.42;;
69620;Laerm;57654;51.434;5.984;2022-07-06T00:37:59;33.30;30.75;35.84;;
69620;Laerm;57654;51.434;5.984;2022-07-06T00:38:09;34.46;32.03;37.38;;
69620;Laerm;57654;51.434;5.984;2022-07-06T00:38:19;34.97;32.68;38.30;;
69620;Laerm;57654;51.434;5.984;2022-07-06T00:38:30;36.03;33.51;38.81;;
69620;Laerm;57654;51.434;5.984;2022-07-06T00:38:40;44.30;37.14;49.34;;
69620;Laerm;57654;51.434;5.984;2022-07-06T00:38:50;49.44;46.49;51.94;;
69620;Laerm;57654;51.434;5.984;2022-07-06T00:39:00;48.96;46.18;51.43;;
69620;Laerm;57654;51.434;5.984;2022-07-06T00:39:11;47.75;38.74;51.44;;
69620;Laerm;57654;51.434;5.984;2022-07-06T00:39:21;35.48;32.79;39.18;;
69620;Laerm;57654;51.434;5.984;2022-07-06T00:39:32;33.05;31.12;35.68;;
69620;Laerm;57654;51.434;5.984;2022-07-06T00:39:42;32.86;30.70;36.34;;
69620;Laerm;57654;51.434;5.984;2022-07-06T00:39:52;32.83;31.18;35.47;;
69620;Laerm;57654;51.434;5.984;2022-07-06T00:40:03;32.87;31.32;34.52;;
69620;Laerm;57654;51.434;5.984;2022-07-06T00:40:13;32.59;30.64;35.24;;
69620;Laerm;57654;51.434;5.984;2022-07-06T00:40:23;32.71;30.42;36.24;;
69620;Laerm;57654;51.434;5.984;2022-07-06T00:40:34;32.94;30.89;35.28;;
69620;Laerm;57654;51.434;5.984;2022-07-06T00:40:44;32.79;30.79;35.78;;
69620;Laerm;57654;51.434;5.984;2022-07-06T00:40:54;32.99;30.50;35.83;;
69620;Laerm;57654;51.434;5.984;2022-07-06T00:41:04;33.10;30.40;35.91;;
69620;Laerm;57654;51.434;5.984;2022-07-06T00:41:14;32.77;30.68;35.50;;
69620;Laerm;57654;51.434;5.984;2022-07-06T00:41:25;32.96;30.83;36.33;;
69620;Laerm;57654;51.434;5.984;2022-07-06T00:41:35;32.80;30.69;35.88;;
69620;Laerm;57654;51.434;5.984;2022-07-06T00:41:45;32.70;30.43;35.86;;
69620;Laerm;57654;51.434;5.984;2022-07-06T00:41:56;32.88;30.28;36.12;;
69620;Laerm;57654;51.434;5.984;2022-07-06T00:42:06;32.71;30.54;36.66;;
69620;Laerm;57654;51.434;5.984;2022-07-06T00:42:16;32.69;30.45;36.54;;
69620;Laerm;57654;51.434;5.984;2022-07-06T00:42:27;32.51;30.67;35.04;;
69620;Laerm;57654;51.434;5.984;2022-07-06T00:42:43;32.50;30.62;35.29;;
69620;Laerm;57654;51.434;5.984;2022-07-06T00:42:54;32.93;31.00;35.85;;
69620;Laerm;57654;51.434;5.984;2022-07-06T00:43:04;32.59;30.79;34.82;;
69620;Laerm;57654;51.434;5.984;2022-07-06T00:43:14;32.67;30.76;35.10;;
69620;Laerm;57654;51.434;5.984;2022-07-06T00:43:25;32.72;30.44;35.74;;
69620;Laerm;57654;51.434;5.984;2022-07-06T00:43:54;32.86;30.61;35.28;;
69620;Laerm;57654;51.434;5.984;2022-07-06T00:44:06;32.94;30.78;37.36;;
69620;Laerm;57654;51.434;5.984;2022-07-06T00:44:17;32.94;30.86;35.04;;
69620;Laerm;57654;51.434;5.984;2022-07-06T00:44:27;32.94;30.98;35.02;;
69620;Laerm;57654;51.434;5.984;2022-07-06T00:44:38;32.74;30.78;35.41;;
69620;Laerm;57654;51.434;5.984;2022-07-06T00:44:49;32.71;30.73;35.83;;
69620;Laerm;57654;51.434;5.984;2022-07-06T00:44:59;32.76;30.63;36.92;;
69620;Laerm;57654;51.434;5.984;2022-07-06T00:45:09;32.82;30.74;35.41;;
69620;Laerm;57654;51.434;5.984;2022-07-06T00:45:20;32.78;30.99;35.44;;
69620;Laerm;57654;51.434;5.984;2022-07-06T00:45:31;32.80;30.57;35.27;;
69620;Laerm;57654;51.434;5.984;2022-07-06T00:45:41;32.84;31.03;35.42;;
69620;Laerm;57654;51.434;5.984;2022-07-06T00:45:51;32.91;30.97;35.58;;
69620;Laerm;57654;51.434;5.984;2022-07-06T00:46:02;32.55;30.44;35.40;;
69620;Laerm;57654;51.434;5.984;2022-07-06T00:46:12;32.81;30.70;35.90;;
69620;Laerm;57654;51.434;5.984;2022-07-06T00:46:23;32.76;30.90;36.17;;
69620;Laerm;57654;51.434;5.984;2022-07-06T00:46:35;32.77;30.25;36.15;;
69620;Laerm;57654;51.434;5.984;2022-07-06T00:46:45;32.88;30.97;36.22;;
69620;Laerm;57654;51.434;5.984;2022-07-06T00:46:56;32.70;30.84;35.03;;
69620;Laerm;57654;51.434;5.984;2022-07-06T00:47:06;32.82;30.85;35.56;;
69620;Laerm;57654;51.434;5.984;2022-07-06T00:47:17;32.73;30.95;35.44;;
69620;Laerm;57654;51.434;5.984;2022-07-06T00:47:28;32.89;30.93;35.38;;
69620;Laerm;57654;51.434;5.984;2022-07-06T00:47:38;33.06;30.94;39.85;;
69620;Laerm;57654;51.434;5.984;2022-07-06T00:47:49;32.78;30.81;35.16;;
69620;Laerm;57654;51.434;5.984;2022-07-06T00:47:59;33.24;31.10;35.92;;
69620;Laerm;57654;51.434;5.984;2022-07-06T00:48:10;33.32;30.94;45.39;;
69620;Laerm;57654;51.434;5.984;2022-07-06T00:48:20;37.71;30.72;49.34;;
69620;Laerm;57654;51.434;5.984;2022-07-06T00:48:30;38.84;30.87;51.63;;
69620;Laerm;57654;51.434;5.984;2022-07-06T00:48:41;38.85;30.96;50.30;;
69620;Laerm;57654;51.434;5.984;2022-07-06T00:48:51;38.64;30.76;50.93;;
69620;Laerm;57654;51.434;5.984;2022-07-06T00:49:02;37.46;31.00;50.42;;
69620;Laerm;57654;51.434;5.984;2022-07-06T00:49:12;35.18;30.26;44.01;;
69620;Laerm;57654;51.434;5.984;2022-07-06T00:49:42;37.92;30.80;52.19;;
69620;Laerm;57654;51.434;5.984;2022-07-06T00:50:12;37.26;30.46;52.98;;
69620;Laerm;57654;51.434;5.984;2022-07-06T00:50:31;36.44;30.78;52.89;;
69620;Laerm;57654;51.434;5.984;2022-07-06T00:50:41;39.29;30.40;50.54;;
69620;Laerm;57654;51.434;5.984;2022-07-06T00:50:51;33.00;31.05;36.90;;
69620;Laerm;57654;51.434;5.984;2022-07-06T00:51:02;38.37;31.08;49.25;;
69620;Laerm;57654;51.434;5.984;2022-07-06T00:51:12;32.79;30.70;36.04;;
69620;Laerm;57654;51.434;5.984;2022-07-06T00:51:24;38.02;30.66;49.32;;
69620;Laerm;57654;51.434;5.984;2022-07-06T00:51:35;37.83;31.01;49.63;;
69620;Laerm;57654;51.434;5.984;2022-07-06T00:51:47;32.75;30.87;35.06;;
69620;Laerm;57654;51.434;5.984;2022-07-06T00:51:57;32.61;30.85;34.70;;
69620;Laerm;57654;51.434;5.984;2022-07-06T00:52:08;32.76;30.63;34.69;;
69620;Laerm;57654;51.434;5.984;2022-07-06T00:52:19;32.88;30.55;35.45;;
69620;Laerm;57654;51.434;5.984;2022-07-06T00:52:29;32.93;30.76;35.41;;
69620;Laerm;57654;51.434;5.984;2022-07-06T00:53:19;32.89;30.50;37.07;;
69620;Laerm;57654;51.434;5.984;2022-07-06T00:53:29;32.72;31.06;36.48;;
69620;Laerm;57654;51.434;5.984;2022-07-06T00:53:40;32.81;31.11;36.35;;
69620;Laerm;57654;51.434;5.984;2022-07-06T00:53:51;33.25;31.23;35.80;;
69620;Laerm;57654;51.434;5.984;2022-07-06T00:54:03;32.83;30.56;36.26;;
69620;Laerm;57654;51.434;5.984;2022-07-06T00:54:13;32.97;30.68;35.41;;
69620;Laerm;57654;51.434;5.984;2022-07-06T00:54:25;32.84;30.77;35.30;;
69620;Laerm;57654;51.434;5.984;2022-07-06T00:54:35;32.91;30.57;36.99;;
69620;Laerm;57654;51.434;5.984;2022-07-06T00:54:46;32.73;30.74;35.71;;
69620;Laerm;57654;51.434;5.984;2022-07-06T00:54:56;32.72;30.75;35.34;;
69620;Laerm;57654;51.434;5.984;2022-07-06T00:55:08;32.77;30.68;35.63;;
69620;Laerm;57654;51.434;5.984;2022-07-06T00:55:23;32.74;30.98;36.06;;
69620;Laerm;57654;51.434;5.984;2022-07-06T00:55:35;32.79;30.87;35.16;;
69620;Laerm;57654;51.434;5.984;2022-07-06T00:55:46;32.72;30.87;35.77;;
69620;Laerm;57654;51.434;5.984;2022-07-06T00:55:57;32.60;30.59;35.34;;
69620;Laerm;57654;51.434;5.984;2022-07-06T00:56:07;33.09;30.76;35.85;;
69620;Laerm;57654;51.434;5.984;2022-07-06T00:56:18;32.90;30.51;36.93;;
69620;Laerm;57654;51.434;5.984;2022-07-06T00:56:29;32.64;31.04;35.12;;
69620;Laerm;57654;51.434;5.984;2022-07-06T00:56:40;32.75;30.86;34.89;;
69620;Laerm;57654;51.434;5.984;2022-07-06T00:56:50;32.61;30.86;34.90;;
69620;Laerm;57654;51.434;5.984;2022-07-06T00:57:01;32.92;30.52;35.06;;
69620;Laerm;57654;51.434;5.984;2022-07-06T00:57:11;32.76;30.70;35.09;;
69620;Laerm;57654;51.434;5.984;2022-07-06T00:57:21;32.89;31.08;35.61;;
69620;Laerm;57654;51.434;5.984;2022-07-06T00:57:31;32.87;30.95;36.21;;
69620;Laerm;57654;51.434;5.984;2022-07-06T00:57:42;32.76;30.47;35.64;;
69620;Laerm;57654;51.434;5.984;2022-07-06T00:57:52;32.73;31.08;35.15;;
69620;Laerm;57654;51.434;5.984;2022-07-06T00:58:03;32.63;30.36;35.79;;
69620;Laerm;57654;51.434;5.984;2022-07-06T00:58:14;32.88;30.73;35.72;;
69620;Laerm;57654;51.434;5.984;2022-07-06T00:58:24;32.80;30.97;35.71;;
69620;Laerm;57654;51.434;5.984;2022-07-06T00:58:34;32.80;30.75;35.74;;
69620;Laerm;57654;51.434;5.984;2022-07-06T00:58:45;32.64;30.57;35.52;;
69620;Laerm;57654;51.434;5.984;2022-07-06T00:58:55;32.88;31.01;35.89;;
69620;Laerm;57654;51.434;5.984;2022-07-06T00:59:05;32.74;30.94;35.79;;
69620;Laerm;57654;51.434;5.984;2022-07-06T00:59:16;32.89;31.09;36.17;;
69620;Laerm;57654;51.434;5.984;2022-07-06T00:59:26;32.70;30.58;36.09;;
69620;Laerm;57654;51.434;5.984;2022-07-06T00:59:37;32.77;30.68;35.60;;
69620;Laerm;57654;51.434;5.984;2022-07-06T00:59:47;32.80;30.81;35.49;;
69620;Laerm;57654;51.434;5.984;2022-07-06T00:59:57;32.75;30.62;35.71;;
69620;Laerm;57654;51.434;5.984;2022-07-06T01:00:09;32.77;30.28;34.98;;